sensor_id;sensor_type;location;lat;lon;timestamp;P1;durP1;ratioP1;P2;durP2;ratioP2
67675;SDS011;54456;48.436;10.028;2022-09-14T00:00:30;13.68;;;6.75;;
67675;SDS011;54456;48.436;10.028;2022-09-14T00:02:01;12.17;;;6.70;;
67675;SDS011;54456;48.436;10.028;2022-09-14T00:03:31;11.10;;;6.73;;
67675;SDS011;54456;48.436;10.028;2022-09-14T00:05:01;11.80;;;6.53;;
67675;SDS011;54456;48.436;10.028;2022-09-14T00:06:32;11.18;;;6.30;;
67675;SDS011;54456;48.436;10.028;2022-09-14T00:08:02;12.52;;;6.40;;
67675;SDS011;54456;48.436;10.028;2022-09-14T00:09:33;11.77;;;5.93;;
67675;SDS011;54456;48.436;10.028;2022-09-14T00:11:07;11.65;;;6.32;;
67675;SDS011;54456;48.436;10.028;2022-09-14T00:12:40;12.88;;;6.82;;
67675;SDS011;54456;48.436;10.028;2022-09-14T00:14:11;12.27;;;6.93;;
67675;SDS011;54456;48.436;10.028;2022-09-14T00:15:41;11.13;;;6.63;;
67675;SDS011;54456;48.436;10.028;2022-09-14T00:17:15;12.65;;;6.68;;
67675;SDS011;54456;48.436;10.028;2022-09-14T00:18:52;12.45;;;6.93;;
67675;SDS011;54456;48.436;10.028;2022-09-14T00:20:26;12.30;;;7.13;;
67675;SDS011;54456;48.436;10.028;2022-09-14T00:21:57;12.63;;;6.60;;
67675;SDS011;54456;48.436;10.028;2022-09-14T00:23:28;12.75;;;6.80;;
67675;SDS011;54456;48.436;10.028;2022-09-14T00:24:58;12.40;;;6.90;;
67675;SDS011;54456;48.436;10.028;2022-09-14T00:26:28;12.33;;;6.93;;
67675;SDS011;54456;48.436;10.028;2022-09-14T00:27:59;12.23;;;7.30;;
67675;SDS011;54456;48.436;10.028;2022-09-14T00:29:29;12.25;;;7.35;;
67675;SDS011;54456;48.436;10.028;2022-09-14T00:31:01;12.23;;;7.32;;
67675;SDS011;54456;48.436;10.028;2022-09-14T00:32:32;14.70;;;6.80;;
67675;SDS011;54456;48.436;10.028;2022-09-14T00:34:04;13.95;;;6.82;;
67675;SDS011;54456;48.436;10.028;2022-09-14T00:35:37;12.68;;;7.25;;
67675;SDS011;54456;48.436;10.028;2022-09-14T00:37:07;11.87;;;6.63;;
67675;SDS011;54456;48.436;10.028;2022-09-14T00:38:38;12.60;;;7.10;;
67675;SDS011;54456;48.436;10.028;2022-09-14T00:40:08;12.55;;;6.90;;
67675;SDS011;54456;48.436;10.028;2022-09-14T00:41:41;13.48;;;7.38;;
67675;SDS011;54456;48.436;10.028;2022-09-14T00:43:13;12.82;;;7.07;;
67675;SDS011;54456;48.436;10.028;2022-09-14T00:46:15;15.17;;;8.00;;
67675;SDS011;54456;48.436;10.028;2022-09-14T00:47:48;13.47;;;7.63;;
67675;SDS011;54456;48.436;10.028;2022-09-14T00:50:59;12.35;;;7.50;;
67675;SDS011;54456;48.436;10.028;2022-09-14T00:52:29;13.00;;;7.78;;
67675;SDS011;54456;48.436;10.028;2022-09-14T00:54:02;12.30;;;6.88;;
67675;SDS011;54456;48.436;10.028;2022-09-14T00:55:33;13.20;;;8.40;;
67675;SDS011;54456;48.436;10.028;2022-09-14T00:57:03;12.10;;;7.13;;
67675;SDS011;54456;48.436;10.028;2022-09-14T00:58:34;11.43;;;6.50;;
67675;SDS011;54456;48.436;10.028;2022-09-14T01:00:06;13.33;;;7.07;;
67675;SDS011;54456;48.436;10.028;2022-09-14T01:01:39;16.60;;;8.50;;
67675;SDS011;54456;48.436;10.028;2022-09-14T01:03:10;15.02;;;8.43;;
67675;SDS011;54456;48.436;10.028;2022-09-14T01:04:40;14.52;;;7.68;;
67675;SDS011;54456;48.436;10.028;2022-09-14T01:06:16;15.25;;;8.80;;
67675;SDS011;54456;48.436;10.028;2022-09-14T01:11:24;15.27;;;8.73;;
67675;SDS011;54456;48.436;10.028;2022-09-14T01:15:17;15.30;;;8.13;;
67675;SDS011;54456;48.436;10.028;2022-09-14T01:17:12;15.25;;;7.95;;
67675;SDS011;54456;48.436;10.028;2022-09-14T01:18:48;14.77;;;8.20;;
67675;SDS011;54456;48.436;10.028;2022-09-14T01:21:54;15.85;;;8.13;;
67675;SDS011;54456;48.436;10.028;2022-09-14T01:23:28;15.82;;;8.38;;
67675;SDS011;54456;48.436;10.028;2022-09-14T01:25:13;14.40;;;8.63;;
67675;SDS011;54456;48.436;10.028;2022-09-14T01:27:18;14.48;;;8.50;;
67675;SDS011;54456;48.436;10.028;2022-09-14T01:30:27;17.90;;;9.00;;
67675;SDS011;54456;48.436;10.028;2022-09-14T01:32:08;17.23;;;9.95;;
67675;SDS011;54456;48.436;10.028;2022-09-14T01:34:04;16.08;;;9.20;;
67675;SDS011;54456;48.436;10.028;2022-09-14T01:35:43;15.05;;;9.38;;
67675;SDS011;54456;48.436;10.028;2022-09-14T01:37:23;15.68;;;9.60;;
67675;SDS011;54456;48.436;10.028;2022-09-14T01:38:56;15.25;;;9.60;;
67675;SDS011;54456;48.436;10.028;2022-09-14T01:40:37;18.83;;;9.85;;
67675;SDS011;54456;48.436;10.028;2022-09-14T01:42:11;21.27;;;11.30;;
67675;SDS011;54456;48.436;10.028;2022-09-14T01:43:52;20.65;;;11.15;;
67675;SDS011;54456;48.436;10.028;2022-09-14T01:45:25;18.42;;;11.02;;
67675;SDS011;54456;48.436;10.028;2022-09-14T01:47:01;17.65;;;10.35;;
67675;SDS011;54456;48.436;10.028;2022-09-14T01:48:52;18.17;;;10.70;;
67675;SDS011;54456;48.436;10.028;2022-09-14T01:50:25;17.95;;;10.95;;
67675;SDS011;54456;48.436;10.028;2022-09-14T01:53:39;18.13;;;9.98;;
67675;SDS011;54456;48.436;10.028;2022-09-14T01:55:17;18.75;;;10.13;;
67675;SDS011;54456;48.436;10.028;2022-09-14T01:56:52;17.98;;;10.32;;
67675;SDS011;54456;48.436;10.028;2022-09-14T02:00:16;19.02;;;11.05;;
67675;SDS011;54456;48.436;10.028;2022-09-14T02:03:36;21.95;;;11.32;;
67675;SDS011;54456;48.436;10.028;2022-09-14T02:05:18;23.02;;;12.55;;
67675;SDS011;54456;48.436;10.028;2022-09-14T02:06:50;22.10;;;12.45;;
67675;SDS011;54456;48.436;10.028;2022-09-14T02:08:21;21.48;;;11.98;;
67675;SDS011;54456;48.436;10.028;2022-09-14T02:09:51;21.48;;;12.32;;
67675;SDS011;54456;48.436;10.028;2022-09-14T02:11:22;23.77;;;14.95;;
67675;SDS011;54456;48.436;10.028;2022-09-14T02:12:53;20.98;;;11.55;;
67675;SDS011;54456;48.436;10.028;2022-09-14T02:14:24;18.98;;;12.10;;
67675;SDS011;54456;48.436;10.028;2022-09-14T02:15:54;24.90;;;13.50;;
67675;SDS011;54456;48.436;10.028;2022-09-14T02:17:25;24.00;;;13.52;;
67675;SDS011;54456;48.436;10.028;2022-09-14T02:18:55;20.30;;;13.25;;
67675;SDS011;54456;48.436;10.028;2022-09-14T02:22:03;23.17;;;13.07;;
67675;SDS011;54456;48.436;10.028;2022-09-14T02:23:34;23.55;;;13.52;;
67675;SDS011;54456;48.436;10.028;2022-09-14T02:25:04;23.73;;;14.13;;
67675;SDS011;54456;48.436;10.028;2022-09-14T02:26:38;27.70;;;14.68;;
67675;SDS011;54456;48.436;10.028;2022-09-14T02:28:10;24.23;;;14.63;;
67675;SDS011;54456;48.436;10.028;2022-09-14T02:29:40;23.70;;;14.37;;
67675;SDS011;54456;48.436;10.028;2022-09-14T02:32:59;26.00;;;15.43;;
67675;SDS011;54456;48.436;10.028;2022-09-14T02:36:36;25.73;;;15.00;;
67675;SDS011;54456;48.436;10.028;2022-09-14T02:42:02;24.52;;;13.70;;
67675;SDS011;54456;48.436;10.028;2022-09-14T02:43:45;21.77;;;13.25;;
67675;SDS011;54456;48.436;10.028;2022-09-14T02:52:24;24.25;;;12.95;;
67675;SDS011;54456;48.436;10.028;2022-09-14T02:55:34;24.67;;;14.90;;
67675;SDS011;54456;48.436;10.028;2022-09-14T02:57:07;23.52;;;13.45;;
67675;SDS011;54456;48.436;10.028;2022-09-14T02:58:39;24.23;;;13.63;;
67675;SDS011;54456;48.436;10.028;2022-09-14T03:00:10;23.65;;;13.20;;
67675;SDS011;54456;48.436;10.028;2022-09-14T03:01:41;24.48;;;13.75;;
67675;SDS011;54456;48.436;10.028;2022-09-14T03:03:12;22.40;;;12.73;;
67675;SDS011;54456;48.436;10.028;2022-09-14T03:04:44;23.48;;;12.70;;
67675;SDS011;54456;48.436;10.028;2022-09-14T03:07:47;19.40;;;11.07;;
67675;SDS011;54456;48.436;10.028;2022-09-14T03:09:17;20.47;;;10.63;;
67675;SDS011;54456;48.436;10.028;2022-09-14T03:10:48;18.52;;;10.95;;
67675;SDS011;54456;48.436;10.028;2022-09-14T03:12:18;20.67;;;12.85;;
67675;SDS011;54456;48.436;10.028;2022-09-14T03:13:48;19.47;;;11.40;;
67675;SDS011;54456;48.436;10.028;2022-09-14T03:15:18;22.97;;;12.70;;
67675;SDS011;54456;48.436;10.028;2022-09-14T03:16:49;20.02;;;11.75;;
67675;SDS011;54456;48.436;10.028;2022-09-14T03:18:19;23.00;;;11.97;;
67675;SDS011;54456;48.436;10.028;2022-09-14T03:19:50;17.95;;;11.20;;
67675;SDS011;54456;48.436;10.028;2022-09-14T03:21:20;22.03;;;12.07;;
67675;SDS011;54456;48.436;10.028;2022-09-14T03:22:50;18.30;;;11.13;;
67675;SDS011;54456;48.436;10.028;2022-09-14T03:24:21;18.92;;;11.20;;
67675;SDS011;54456;48.436;10.028;2022-09-14T03:25:51;20.47;;;11.33;;
67675;SDS011;54456;48.436;10.028;2022-09-14T03:27:21;20.43;;;11.37;;
67675;SDS011;54456;48.436;10.028;2022-09-14T03:28:52;22.30;;;13.48;;
67675;SDS011;54456;48.436;10.028;2022-09-14T03:30:29;22.58;;;12.07;;
67675;SDS011;54456;48.436;10.028;2022-09-14T03:32:00;20.98;;;12.65;;
67675;SDS011;54456;48.436;10.028;2022-09-14T03:33:30;23.83;;;11.88;;
67675;SDS011;54456;48.436;10.028;2022-09-14T03:35:01;19.20;;;11.77;;
67675;SDS011;54456;48.436;10.028;2022-09-14T03:36:32;20.50;;;12.40;;
67675;SDS011;54456;48.436;10.028;2022-09-14T03:38:05;22.15;;;13.02;;
67675;SDS011;54456;48.436;10.028;2022-09-14T03:39:35;26.98;;;13.70;;
67675;SDS011;54456;48.436;10.028;2022-09-14T03:41:07;24.70;;;13.35;;
67675;SDS011;54456;48.436;10.028;2022-09-14T03:42:45;23.85;;;13.95;;
67675;SDS011;54456;48.436;10.028;2022-09-14T03:44:17;23.70;;;13.63;;
67675;SDS011;54456;48.436;10.028;2022-09-14T03:45:47;25.17;;;14.70;;
67675;SDS011;54456;48.436;10.028;2022-09-14T03:47:17;26.93;;;14.97;;
67675;SDS011;54456;48.436;10.028;2022-09-14T03:48:48;25.90;;;15.17;;
67675;SDS011;54456;48.436;10.028;2022-09-14T03:50:18;26.48;;;15.95;;
67675;SDS011;54456;48.436;10.028;2022-09-14T03:51:49;27.55;;;15.50;;
67675;SDS011;54456;48.436;10.028;2022-09-14T03:53:20;30.13;;;16.55;;
67675;SDS011;54456;48.436;10.028;2022-09-14T03:54:50;26.87;;;16.47;;
67675;SDS011;54456;48.436;10.028;2022-09-14T03:56:21;28.40;;;16.00;;
67675;SDS011;54456;48.436;10.028;2022-09-14T03:57:52;29.25;;;15.43;;
67675;SDS011;54456;48.436;10.028;2022-09-14T03:59:23;25.45;;;15.40;;
67675;SDS011;54456;48.436;10.028;2022-09-14T04:00:54;26.98;;;15.48;;
67675;SDS011;54456;48.436;10.028;2022-09-14T04:02:27;24.58;;;14.82;;
67675;SDS011;54456;48.436;10.028;2022-09-14T04:03:58;24.70;;;15.00;;
67675;SDS011;54456;48.436;10.028;2022-09-14T04:05:28;28.17;;;16.42;;
67675;SDS011;54456;48.436;10.028;2022-09-14T04:06:59;28.47;;;15.30;;
67675;SDS011;54456;48.436;10.028;2022-09-14T04:08:30;26.83;;;14.93;;
67675;SDS011;54456;48.436;10.028;2022-09-14T04:10:04;27.08;;;15.93;;
67675;SDS011;54456;48.436;10.028;2022-09-14T04:11:36;29.38;;;15.25;;
67675;SDS011;54456;48.436;10.028;2022-09-14T04:13:06;26.65;;;14.70;;
67675;SDS011;54456;48.436;10.028;2022-09-14T04:14:36;26.97;;;14.80;;
67675;SDS011;54456;48.436;10.028;2022-09-14T04:16:07;25.83;;;14.25;;
67675;SDS011;54456;48.436;10.028;2022-09-14T04:17:40;22.30;;;13.25;;
67675;SDS011;54456;48.436;10.028;2022-09-14T04:19:11;25.83;;;14.82;;
67675;SDS011;54456;48.436;10.028;2022-09-14T04:20:42;24.92;;;15.30;;
67675;SDS011;54456;48.436;10.028;2022-09-14T04:22:12;26.13;;;14.30;;
67675;SDS011;54456;48.436;10.028;2022-09-14T04:23:42;26.50;;;14.47;;
67675;SDS011;54456;48.436;10.028;2022-09-14T04:25:13;24.83;;;13.88;;
67675;SDS011;54456;48.436;10.028;2022-09-14T04:26:43;23.35;;;13.65;;
67675;SDS011;54456;48.436;10.028;2022-09-14T04:28:14;25.90;;;15.27;;
67675;SDS011;54456;48.436;10.028;2022-09-14T04:29:47;25.42;;;13.20;;
67675;SDS011;54456;48.436;10.028;2022-09-14T04:31:18;26.73;;;14.57;;
67675;SDS011;54456;48.436;10.028;2022-09-14T04:32:48;25.98;;;15.75;;
67675;SDS011;54456;48.436;10.028;2022-09-14T04:34:19;22.95;;;13.35;;
67675;SDS011;54456;48.436;10.028;2022-09-14T04:35:56;28.77;;;15.10;;
67675;SDS011;54456;48.436;10.028;2022-09-14T04:37:29;24.67;;;15.38;;
67675;SDS011;54456;48.436;10.028;2022-09-14T04:39:01;27.08;;;15.60;;
67675;SDS011;54456;48.436;10.028;2022-09-14T04:40:32;22.98;;;13.82;;
67675;SDS011;54456;48.436;10.028;2022-09-14T04:42:02;26.38;;;14.05;;
67675;SDS011;54456;48.436;10.028;2022-09-14T04:43:33;25.55;;;15.45;;
67675;SDS011;54456;48.436;10.028;2022-09-14T04:45:04;22.35;;;13.02;;
67675;SDS011;54456;48.436;10.028;2022-09-14T04:46:35;23.08;;;14.38;;
67675;SDS011;54456;48.436;10.028;2022-09-14T04:48:05;22.88;;;12.85;;
67675;SDS011;54456;48.436;10.028;2022-09-14T04:49:36;21.30;;;13.03;;
67675;SDS011;54456;48.436;10.028;2022-09-14T04:51:07;21.73;;;12.50;;
67675;SDS011;54456;48.436;10.028;2022-09-14T04:52:48;21.08;;;12.15;;
67675;SDS011;54456;48.436;10.028;2022-09-14T04:54:21;24.20;;;12.98;;
67675;SDS011;54456;48.436;10.028;2022-09-14T04:55:52;23.13;;;12.73;;
67675;SDS011;54456;48.436;10.028;2022-09-14T04:57:27;22.50;;;13.18;;
67675;SDS011;54456;48.436;10.028;2022-09-14T04:58:58;20.75;;;13.02;;
67675;SDS011;54456;48.436;10.028;2022-09-14T05:00:32;22.10;;;12.40;;
67675;SDS011;54456;48.436;10.028;2022-09-14T05:02:03;22.85;;;13.55;;
67675;SDS011;54456;48.436;10.028;2022-09-14T05:03:34;22.13;;;13.55;;
67675;SDS011;54456;48.436;10.028;2022-09-14T05:05:07;21.58;;;12.77;;
67675;SDS011;54456;48.436;10.028;2022-09-14T05:06:38;20.63;;;11.93;;
67675;SDS011;54456;48.436;10.028;2022-09-14T05:08:09;20.55;;;11.85;;
67675;SDS011;54456;48.436;10.028;2022-09-14T05:09:40;17.87;;;11.23;;
67675;SDS011;54456;48.436;10.028;2022-09-14T05:11:11;18.55;;;11.00;;
67675;SDS011;54456;48.436;10.028;2022-09-14T05:12:45;19.17;;;11.35;;
67675;SDS011;54456;48.436;10.028;2022-09-14T05:14:15;20.05;;;11.80;;
67675;SDS011;54456;48.436;10.028;2022-09-14T05:15:45;20.00;;;11.45;;
67675;SDS011;54456;48.436;10.028;2022-09-14T05:17:16;20.03;;;11.03;;
67675;SDS011;54456;48.436;10.028;2022-09-14T05:18:46;19.00;;;11.23;;
67675;SDS011;54456;48.436;10.028;2022-09-14T05:20:17;17.13;;;10.63;;
67675;SDS011;54456;48.436;10.028;2022-09-14T05:21:47;19.40;;;10.63;;
67675;SDS011;54456;48.436;10.028;2022-09-14T05:23:18;14.97;;;10.03;;
67675;SDS011;54456;48.436;10.028;2022-09-14T05:24:48;16.37;;;9.97;;
67675;SDS011;54456;48.436;10.028;2022-09-14T05:26:18;14.97;;;9.40;;
67675;SDS011;54456;48.436;10.028;2022-09-14T05:27:49;17.13;;;10.32;;
67675;SDS011;54456;48.436;10.028;2022-09-14T05:29:19;16.40;;;9.57;;
67675;SDS011;54456;48.436;10.028;2022-09-14T05:30:50;18.77;;;9.95;;
67675;SDS011;54456;48.436;10.028;2022-09-14T05:32:20;19.17;;;10.75;;
67675;SDS011;54456;48.436;10.028;2022-09-14T05:33:50;14.93;;;9.00;;
67675;SDS011;54456;48.436;10.028;2022-09-14T05:35:21;16.85;;;10.95;;
67675;SDS011;54456;48.436;10.028;2022-09-14T05:36:51;17.07;;;10.17;;
67675;SDS011;54456;48.436;10.028;2022-09-14T05:38:22;15.60;;;9.93;;
67675;SDS011;54456;48.436;10.028;2022-09-14T05:39:52;17.70;;;9.80;;
67675;SDS011;54456;48.436;10.028;2022-09-14T05:41:23;16.93;;;9.87;;
67675;SDS011;54456;48.436;10.028;2022-09-14T05:42:53;16.00;;;10.23;;
67675;SDS011;54456;48.436;10.028;2022-09-14T05:44:23;19.02;;;10.98;;
67675;SDS011;54456;48.436;10.028;2022-09-14T05:45:54;17.00;;;10.03;;
67675;SDS011;54456;48.436;10.028;2022-09-14T05:47:24;17.30;;;11.10;;
67675;SDS011;54456;48.436;10.028;2022-09-14T05:48:55;18.17;;;11.85;;
67675;SDS011;54456;48.436;10.028;2022-09-14T05:50:25;16.92;;;10.40;;
67675;SDS011;54456;48.436;10.028;2022-09-14T05:51:56;17.10;;;11.30;;
67675;SDS011;54456;48.436;10.028;2022-09-14T05:53:26;16.25;;;10.95;;
67675;SDS011;54456;48.436;10.028;2022-09-14T05:54:57;20.23;;;11.18;;
67675;SDS011;54456;48.436;10.028;2022-09-14T05:56:28;17.87;;;11.20;;
67675;SDS011;54456;48.436;10.028;2022-09-14T05:57:59;17.45;;;10.68;;
67675;SDS011;54456;48.436;10.028;2022-09-14T05:59:29;18.50;;;10.97;;
67675;SDS011;54456;48.436;10.028;2022-09-14T06:01:12;18.38;;;10.95;;
67675;SDS011;54456;48.436;10.028;2022-09-14T06:02:45;17.52;;;11.38;;
67675;SDS011;54456;48.436;10.028;2022-09-14T06:04:16;16.92;;;10.82;;
67675;SDS011;54456;48.436;10.028;2022-09-14T06:05:47;16.60;;;11.13;;
67675;SDS011;54456;48.436;10.028;2022-09-14T06:07:17;21.92;;;11.57;;
67675;SDS011;54456;48.436;10.028;2022-09-14T06:08:48;17.42;;;10.85;;
67675;SDS011;54456;48.436;10.028;2022-09-14T06:10:21;18.30;;;10.77;;
67675;SDS011;54456;48.436;10.028;2022-09-14T06:11:51;16.08;;;10.07;;
67675;SDS011;54456;48.436;10.028;2022-09-14T06:13:22;16.65;;;11.05;;
67675;SDS011;54456;48.436;10.028;2022-09-14T06:14:52;17.83;;;11.50;;
67675;SDS011;54456;48.436;10.028;2022-09-14T06:16:23;18.33;;;11.63;;
67675;SDS011;54456;48.436;10.028;2022-09-14T06:17:54;16.13;;;10.68;;
67675;SDS011;54456;48.436;10.028;2022-09-14T06:19:24;15.52;;;10.25;;
67675;SDS011;54456;48.436;10.028;2022-09-14T06:20:55;17.58;;;10.93;;
67675;SDS011;54456;48.436;10.028;2022-09-14T06:22:25;15.70;;;9.50;;
67675;SDS011;54456;48.436;10.028;2022-09-14T06:23:58;17.30;;;9.88;;
67675;SDS011;54456;48.436;10.028;2022-09-14T06:25:28;15.63;;;9.70;;
67675;SDS011;54456;48.436;10.028;2022-09-14T06:27:00;14.57;;;10.25;;
67675;SDS011;54456;48.436;10.028;2022-09-14T06:28:30;16.53;;;9.23;;
67675;SDS011;54456;48.436;10.028;2022-09-14T06:30:01;14.00;;;9.02;;
67675;SDS011;54456;48.436;10.028;2022-09-14T06:31:32;13.60;;;9.13;;
67675;SDS011;54456;48.436;10.028;2022-09-14T06:33:05;17.15;;;9.45;;
67675;SDS011;54456;48.436;10.028;2022-09-14T06:34:36;13.17;;;7.87;;
67675;SDS011;54456;48.436;10.028;2022-09-14T06:36:07;13.50;;;8.37;;
67675;SDS011;54456;48.436;10.028;2022-09-14T06:37:41;13.02;;;7.75;;
67675;SDS011;54456;48.436;10.028;2022-09-14T06:39:11;15.13;;;7.87;;
67675;SDS011;54456;48.436;10.028;2022-09-14T06:40:49;13.07;;;7.70;;
67675;SDS011;54456;48.436;10.028;2022-09-14T06:42:21;11.88;;;7.00;;
67675;SDS011;54456;48.436;10.028;2022-09-14T06:43:51;14.32;;;7.80;;
67675;SDS011;54456;48.436;10.028;2022-09-14T06:45:24;14.68;;;7.45;;
67675;SDS011;54456;48.436;10.028;2022-09-14T06:46:55;13.43;;;7.50;;
67675;SDS011;54456;48.436;10.028;2022-09-14T06:48:36;11.93;;;6.93;;
67675;SDS011;54456;48.436;10.028;2022-09-14T06:50:07;11.32;;;6.75;;
67675;SDS011;54456;48.436;10.028;2022-09-14T06:51:39;12.30;;;6.80;;
67675;SDS011;54456;48.436;10.028;2022-09-14T06:53:11;10.10;;;6.18;;
67675;SDS011;54456;48.436;10.028;2022-09-14T06:54:41;10.75;;;6.10;;
67675;SDS011;54456;48.436;10.028;2022-09-14T06:56:11;10.43;;;5.77;;
67675;SDS011;54456;48.436;10.028;2022-09-14T06:57:42;9.93;;;5.40;;
67675;SDS011;54456;48.436;10.028;2022-09-14T06:59:14;10.40;;;5.53;;
67675;SDS011;54456;48.436;10.028;2022-09-14T07:00:45;9.05;;;5.20;;
67675;SDS011;54456;48.436;10.028;2022-09-14T07:02:15;11.47;;;5.30;;
67675;SDS011;54456;48.436;10.028;2022-09-14T07:03:46;9.35;;;5.05;;
67675;SDS011;54456;48.436;10.028;2022-09-14T07:05:17;9.13;;;5.05;;
67675;SDS011;54456;48.436;10.028;2022-09-14T07:06:50;10.68;;;5.22;;
67675;SDS011;54456;48.436;10.028;2022-09-14T07:08:20;10.07;;;5.20;;
67675;SDS011;54456;48.436;10.028;2022-09-14T07:09:51;7.90;;;4.80;;
67675;SDS011;54456;48.436;10.028;2022-09-14T07:11:23;11.20;;;5.43;;
67675;SDS011;54456;48.436;10.028;2022-09-14T07:12:54;10.13;;;5.03;;
67675;SDS011;54456;48.436;10.028;2022-09-14T07:14:26;9.88;;;4.50;;
67675;SDS011;54456;48.436;10.028;2022-09-14T07:15:56;10.63;;;4.90;;
67675;SDS011;54456;48.436;10.028;2022-09-14T07:17:27;10.60;;;5.18;;
67675;SDS011;54456;48.436;10.028;2022-09-14T07:18:58;10.50;;;5.30;;
67675;SDS011;54456;48.436;10.028;2022-09-14T07:20:32;11.23;;;5.03;;
67675;SDS011;54456;48.436;10.028;2022-09-14T07:22:02;9.25;;;4.93;;
67675;SDS011;54456;48.436;10.028;2022-09-14T07:23:34;9.60;;;5.20;;
67675;SDS011;54456;48.436;10.028;2022-09-14T07:25:05;9.05;;;4.80;;
67675;SDS011;54456;48.436;10.028;2022-09-14T07:26:37;10.25;;;4.90;;
67675;SDS011;54456;48.436;10.028;2022-09-14T07:28:08;9.40;;;4.80;;
67675;SDS011;54456;48.436;10.028;2022-09-14T07:29:39;9.35;;;4.32;;
67675;SDS011;54456;48.436;10.028;2022-09-14T07:31:19;8.57;;;4.73;;
67675;SDS011;54456;48.436;10.028;2022-09-14T07:32:52;10.38;;;4.30;;
67675;SDS011;54456;48.436;10.028;2022-09-14T07:34:22;7.95;;;4.50;;
67675;SDS011;54456;48.436;10.028;2022-09-14T07:35:53;8.40;;;3.88;;
67675;SDS011;54456;48.436;10.028;2022-09-14T07:37:24;8.38;;;4.07;;
67675;SDS011;54456;48.436;10.028;2022-09-14T07:38:54;7.03;;;3.87;;
67675;SDS011;54456;48.436;10.028;2022-09-14T07:40:25;9.30;;;4.68;;
67675;SDS011;54456;48.436;10.028;2022-09-14T07:41:55;8.50;;;4.07;;
67675;SDS011;54456;48.436;10.028;2022-09-14T07:43:26;9.00;;;4.13;;
67675;SDS011;54456;48.436;10.028;2022-09-14T07:44:57;8.18;;;4.00;;
67675;SDS011;54456;48.436;10.028;2022-09-14T07:46:28;9.27;;;3.80;;
67675;SDS011;54456;48.436;10.028;2022-09-14T07:48:02;8.75;;;3.70;;
67675;SDS011;54456;48.436;10.028;2022-09-14T07:49:32;7.40;;;3.63;;
67675;SDS011;54456;48.436;10.028;2022-09-14T07:51:06;8.83;;;3.90;;
67675;SDS011;54456;48.436;10.028;2022-09-14T07:52:39;9.18;;;3.63;;
67675;SDS011;54456;48.436;10.028;2022-09-14T07:54:10;6.80;;;3.70;;
67675;SDS011;54456;48.436;10.028;2022-09-14T07:55:41;7.68;;;3.70;;
67675;SDS011;54456;48.436;10.028;2022-09-14T07:57:12;7.15;;;3.22;;
67675;SDS011;54456;48.436;10.028;2022-09-14T07:58:42;6.55;;;3.25;;
67675;SDS011;54456;48.436;10.028;2022-09-14T08:00:13;7.40;;;3.50;;
67675;SDS011;54456;48.436;10.028;2022-09-14T08:01:44;10.32;;;3.92;;
67675;SDS011;54456;48.436;10.028;2022-09-14T08:03:15;8.05;;;3.67;;
67675;SDS011;54456;48.436;10.028;2022-09-14T08:04:46;8.50;;;3.50;;
67675;SDS011;54456;48.436;10.028;2022-09-14T08:06:18;8.77;;;3.72;;
67675;SDS011;54456;48.436;10.028;2022-09-14T08:07:53;7.97;;;3.60;;
67675;SDS011;54456;48.436;10.028;2022-09-14T08:09:24;9.10;;;4.32;;
67675;SDS011;54456;48.436;10.028;2022-09-14T08:10:55;8.73;;;3.78;;
67675;SDS011;54456;48.436;10.028;2022-09-14T08:12:27;8.77;;;3.50;;
67675;SDS011;54456;48.436;10.028;2022-09-14T08:13:58;6.77;;;3.33;;
67675;SDS011;54456;48.436;10.028;2022-09-14T08:15:29;7.82;;;3.03;;
67675;SDS011;54456;48.436;10.028;2022-09-14T08:17:00;7.53;;;3.88;;
67675;SDS011;54456;48.436;10.028;2022-09-14T08:18:31;7.47;;;3.10;;
67675;SDS011;54456;48.436;10.028;2022-09-14T08:20:02;7.78;;;2.97;;
67675;SDS011;54456;48.436;10.028;2022-09-14T08:21:33;6.82;;;3.20;;
67675;SDS011;54456;48.436;10.028;2022-09-14T08:23:04;7.43;;;3.60;;
67675;SDS011;54456;48.436;10.028;2022-09-14T08:24:37;7.40;;;3.50;;
67675;SDS011;54456;48.436;10.028;2022-09-14T08:26:10;7.03;;;3.10;;
67675;SDS011;54456;48.436;10.028;2022-09-14T08:27:42;8.50;;;3.33;;
67675;SDS011;54456;48.436;10.028;2022-09-14T08:29:12;6.03;;;2.73;;
67675;SDS011;54456;48.436;10.028;2022-09-14T08:30:43;6.70;;;3.00;;
67675;SDS011;54456;48.436;10.028;2022-09-14T08:32:14;6.70;;;3.10;;
67675;SDS011;54456;48.436;10.028;2022-09-14T08:33:46;7.80;;;3.47;;
67675;SDS011;54456;48.436;10.028;2022-09-14T08:35:17;7.47;;;2.90;;
67675;SDS011;54456;48.436;10.028;2022-09-14T08:36:48;7.57;;;3.25;;
67675;SDS011;54456;48.436;10.028;2022-09-14T08:38:18;7.28;;;3.10;;
67675;SDS011;54456;48.436;10.028;2022-09-14T08:39:49;7.27;;;2.70;;
67675;SDS011;54456;48.436;10.028;2022-09-14T08:43:12;7.88;;;2.97;;
67675;SDS011;54456;48.436;10.028;2022-09-14T08:44:48;6.18;;;2.95;;
67675;SDS011;54456;48.436;10.028;2022-09-14T08:48:02;7.30;;;2.90;;
67675;SDS011;54456;48.436;10.028;2022-09-14T08:49:46;8.43;;;3.30;;
67675;SDS011;54456;48.436;10.028;2022-09-14T08:51:17;8.27;;;3.30;;
67675;SDS011;54456;48.436;10.028;2022-09-14T08:54:24;7.18;;;3.00;;
67675;SDS011;54456;48.436;10.028;2022-09-14T08:55:58;7.53;;;2.70;;
67675;SDS011;54456;48.436;10.028;2022-09-14T08:57:36;6.15;;;2.85;;
67675;SDS011;54456;48.436;10.028;2022-09-14T08:59:16;6.57;;;3.10;;
67675;SDS011;54456;48.436;10.028;2022-09-14T09:00:49;6.80;;;3.20;;
67675;SDS011;54456;48.436;10.028;2022-09-14T09:06:01;7.15;;;2.97;;
67675;SDS011;54456;48.436;10.028;2022-09-14T09:07:41;7.05;;;3.05;;
67675;SDS011;54456;48.436;10.028;2022-09-14T09:11:17;6.38;;;3.00;;
67675;SDS011;54456;48.436;10.028;2022-09-14T09:12:53;6.72;;;2.88;;
67675;SDS011;54456;48.436;10.028;2022-09-14T09:16:06;6.50;;;3.10;;
67675;SDS011;54456;48.436;10.028;2022-09-14T09:17:39;6.88;;;2.90;;
67675;SDS011;54456;48.436;10.028;2022-09-14T09:19:14;8.13;;;3.08;;
67675;SDS011;54456;48.436;10.028;2022-09-14T09:20:49;6.40;;;2.92;;
67675;SDS011;54456;48.436;10.028;2022-09-14T09:22:22;6.97;;;3.03;;
67675;SDS011;54456;48.436;10.028;2022-09-14T09:25:30;8.68;;;2.90;;
67675;SDS011;54456;48.436;10.028;2022-09-14T09:27:12;8.27;;;3.00;;
67675;SDS011;54456;48.436;10.028;2022-09-14T09:28:47;7.07;;;3.22;;
67675;SDS011;54456;48.436;10.028;2022-09-14T09:30:18;6.32;;;3.00;;
67675;SDS011;54456;48.436;10.028;2022-09-14T09:31:50;9.15;;;3.15;;
67675;SDS011;54456;48.436;10.028;2022-09-14T09:33:23;7.03;;;3.05;;
67675;SDS011;54456;48.436;10.028;2022-09-14T09:34:55;8.75;;;3.08;;
67675;SDS011;54456;48.436;10.028;2022-09-14T09:36:25;7.35;;;2.92;;
67675;SDS011;54456;48.436;10.028;2022-09-14T09:38:06;7.30;;;3.22;;
67675;SDS011;54456;48.436;10.028;2022-09-14T09:39:41;6.32;;;3.30;;
67675;SDS011;54456;48.436;10.028;2022-09-14T09:41:23;8.18;;;3.40;;
67675;SDS011;54456;48.436;10.028;2022-09-14T09:43:06;7.35;;;3.25;;
67675;SDS011;54456;48.436;10.028;2022-09-14T09:46:28;8.48;;;3.20;;
67675;SDS011;54456;48.436;10.028;2022-09-14T09:48:06;9.32;;;3.50;;
67675;SDS011;54456;48.436;10.028;2022-09-14T09:49:38;7.30;;;3.10;;
67675;SDS011;54456;48.436;10.028;2022-09-14T09:52:58;8.18;;;4.00;;